sensor_id;sensor_type;location;lat;lon;timestamp;P1;durP1;ratioP1;P2;durP2;ratioP2
14734;SDS011;7458;49.002;8.472;2023-02-28T00:01:22;6.28;;;5.15;;
14734;SDS011;7458;49.002;8.472;2023-02-28T00:03:48;6.25;;;4.93;;
14734;SDS011;7458;49.002;8.472;2023-02-28T00:06:14;4.55;;;3.85;;
14734;SDS011;7458;49.002;8.472;2023-02-28T00:08:40;7.72;;;4.70;;
14734;SDS011;7458;49.002;8.472;2023-02-28T00:11:07;5.32;;;4.07;;
14734;SDS011;7458;49.002;8.472;2023-02-28T00:13:36;7.53;;;4.82;;
14734;SDS011;7458;49.002;8.472;2023-02-28T00:16:20;7.25;;;4.65;;
14734;SDS011;7458;49.002;8.472;2023-02-28T00:18:47;5.20;;;4.57;;
14734;SDS011;7458;49.002;8.472;2023-02-28T00:21:14;5.03;;;4.32;;
14734;SDS011;7458;49.002;8.472;2023-02-28T00:23:42;5.50;;;3.88;;
14734;SDS011;7458;49.002;8.472;2023-02-28T00:26:08;6.90;;;5.00;;
14734;SDS011;7458;49.002;8.472;2023-02-28T00:28:34;6.28;;;4.68;;
14734;SDS011;7458;49.002;8.472;2023-02-28T00:31:00;12.05;;;4.53;;
14734;SDS011;7458;49.002;8.472;2023-02-28T00:33:26;6.22;;;4.28;;
14734;SDS011;7458;49.002;8.472;2023-02-28T00:36:00;6.82;;;5.60;;
14734;SDS011;7458;49.002;8.472;2023-02-28T00:38:31;4.20;;;3.70;;
14734;SDS011;7458;49.002;8.472;2023-02-28T00:40:57;6.38;;;4.53;;
14734;SDS011;7458;49.002;8.472;2023-02-28T00:43:23;6.85;;;4.45;;
14734;SDS011;7458;49.002;8.472;2023-02-28T00:45:49;8.07;;;4.70;;
14734;SDS011;7458;49.002;8.472;2023-02-28T00:48:14;5.72;;;4.63;;
14734;SDS011;7458;49.002;8.472;2023-02-28T00:50:41;6.03;;;4.10;;
14734;SDS011;7458;49.002;8.472;2023-02-28T00:53:06;5.53;;;4.95;;
14734;SDS011;7458;49.002;8.472;2023-02-28T00:55:32;7.78;;;4.20;;
14734;SDS011;7458;49.002;8.472;2023-02-28T00:57:57;5.65;;;4.20;;
14734;SDS011;7458;49.002;8.472;2023-02-28T01:00:23;6.75;;;5.55;;
14734;SDS011;7458;49.002;8.472;2023-02-28T01:02:49;7.63;;;4.80;;
14734;SDS011;7458;49.002;8.472;2023-02-28T01:05:15;5.70;;;4.20;;
14734;SDS011;7458;49.002;8.472;2023-02-28T01:07:40;7.60;;;4.53;;
14734;SDS011;7458;49.002;8.472;2023-02-28T01:10:06;5.45;;;4.47;;
14734;SDS011;7458;49.002;8.472;2023-02-28T01:12:33;7.63;;;4.38;;
14734;SDS011;7458;49.002;8.472;2023-02-28T01:15:02;7.55;;;4.63;;
14734;SDS011;7458;49.002;8.472;2023-02-28T01:17:28;6.00;;;4.88;;
14734;SDS011;7458;49.002;8.472;2023-02-28T01:19:54;6.10;;;4.50;;
14734;SDS011;7458;49.002;8.472;2023-02-28T01:22:20;6.93;;;4.55;;
14734;SDS011;7458;49.002;8.472;2023-02-28T01:24:47;4.90;;;4.03;;
14734;SDS011;7458;49.002;8.472;2023-02-28T01:27:13;7.63;;;4.40;;
14734;SDS011;7458;49.002;8.472;2023-02-28T01:29:38;5.97;;;4.65;;
14734;SDS011;7458;49.002;8.472;2023-02-28T01:32:04;5.50;;;4.63;;
14734;SDS011;7458;49.002;8.472;2023-02-28T01:34:30;4.40;;;3.85;;
14734;SDS011;7458;49.002;8.472;2023-02-28T01:36:55;6.97;;;5.40;;
14734;SDS011;7458;49.002;8.472;2023-02-28T01:39:23;7.35;;;4.68;;
14734;SDS011;7458;49.002;8.472;2023-02-28T01:41:50;6.53;;;4.93;;
14734;SDS011;7458;49.002;8.472;2023-02-28T01:47:24;4.97;;;3.75;;
14734;SDS011;7458;49.002;8.472;2023-02-28T01:49:56;7.28;;;4.65;;
14734;SDS011;7458;49.002;8.472;2023-02-28T01:52:25;6.75;;;5.57;;
14734;SDS011;7458;49.002;8.472;2023-02-28T01:54:54;6.03;;;4.03;;
14734;SDS011;7458;49.002;8.472;2023-02-28T01:57:25;5.75;;;4.45;;
14734;SDS011;7458;49.002;8.472;2023-02-28T02:00:04;8.32;;;5.15;;
14734;SDS011;7458;49.002;8.472;2023-02-28T02:02:35;8.38;;;5.07;;
14734;SDS011;7458;49.002;8.472;2023-02-28T02:05:04;9.55;;;5.82;;
14734;SDS011;7458;49.002;8.472;2023-02-28T02:07:36;4.90;;;4.40;;
14734;SDS011;7458;49.002;8.472;2023-02-28T02:15:32;7.32;;;5.30;;
14734;SDS011;7458;49.002;8.472;2023-02-28T02:18:30;6.65;;;5.75;;
14734;SDS011;7458;49.002;8.472;2023-02-28T02:21:42;8.45;;;5.40;;
14734;SDS011;7458;49.002;8.472;2023-02-28T02:36:33;7.15;;;6.22;;
14734;SDS011;7458;49.002;8.472;2023-02-28T02:39:14;6.10;;;5.47;;
14734;SDS011;7458;49.002;8.472;2023-02-28T02:41:54;5.95;;;4.72;;
14734;SDS011;7458;49.002;8.472;2023-02-28T02:45:06;8.45;;;4.85;;
14734;SDS011;7458;49.002;8.472;2023-02-28T02:47:19;6.90;;;5.18;;
14734;SDS011;7458;49.002;8.472;2023-02-28T02:49:52;7.45;;;5.60;;
14734;SDS011;7458;49.002;8.472;2023-02-28T02:52:24;6.13;;;4.28;;
14734;SDS011;7458;49.002;8.472;2023-02-28T02:55:02;8.38;;;6.38;;
14734;SDS011;7458;49.002;8.472;2023-02-28T03:00:26;6.97;;;5.03;;
14734;SDS011;7458;49.002;8.472;2023-02-28T03:03:02;8.55;;;4.78;;
14734;SDS011;7458;49.002;8.472;2023-02-28T03:05:33;9.48;;;6.22;;
14734;SDS011;7458;49.002;8.472;2023-02-28T03:08:13;9.50;;;5.97;;
14734;SDS011;7458;49.002;8.472;2023-02-28T03:10:43;7.82;;;6.50;;
14734;SDS011;7458;49.002;8.472;2023-02-28T03:16:21;6.78;;;6.00;;
14734;SDS011;7458;49.002;8.472;2023-02-28T03:19:09;7.75;;;4.95;;
14734;SDS011;7458;49.002;8.472;2023-02-28T03:24:53;6.03;;;4.55;;
14734;SDS011;7458;49.002;8.472;2023-02-28T03:36:21;7.13;;;4.43;;
14734;SDS011;7458;49.002;8.472;2023-02-28T03:39:02;7.20;;;5.60;;
14734;SDS011;7458;49.002;8.472;2023-02-28T03:41:36;7.10;;;5.70;;
14734;SDS011;7458;49.002;8.472;2023-02-28T03:44:16;6.22;;;5.63;;
14734;SDS011;7458;49.002;8.472;2023-02-28T03:50:27;12.52;;;6.75;;
14734;SDS011;7458;49.002;8.472;2023-02-28T03:53:13;7.20;;;5.45;;
14734;SDS011;7458;49.002;8.472;2023-02-28T03:56:06;8.80;;;5.43;;
14734;SDS011;7458;49.002;8.472;2023-02-28T03:58:43;7.53;;;6.60;;
14734;SDS011;7458;49.002;8.472;2023-02-28T04:01:45;7.43;;;5.30;;
14734;SDS011;7458;49.002;8.472;2023-02-28T04:04:13;9.93;;;5.95;;
14734;SDS011;7458;49.002;8.472;2023-02-28T04:06:41;7.22;;;5.13;;
14734;SDS011;7458;49.002;8.472;2023-02-28T04:09:10;13.85;;;6.18;;
14734;SDS011;7458;49.002;8.472;2023-02-28T04:11:40;8.35;;;7.50;;
14734;SDS011;7458;49.002;8.472;2023-02-28T04:14:24;7.60;;;5.90;;
14734;SDS011;7458;49.002;8.472;2023-02-28T04:16:50;10.10;;;7.55;;
14734;SDS011;7458;49.002;8.472;2023-02-28T04:19:16;6.78;;;6.18;;
14734;SDS011;7458;49.002;8.472;2023-02-28T04:21:44;10.93;;;5.93;;
14734;SDS011;7458;49.002;8.472;2023-02-28T04:24:15;14.57;;;6.80;;
14734;SDS011;7458;49.002;8.472;2023-02-28T04:26:44;11.02;;;7.53;;
14734;SDS011;7458;49.002;8.472;2023-02-28T04:29:13;8.15;;;5.72;;
14734;SDS011;7458;49.002;8.472;2023-02-28T04:31:44;8.63;;;6.20;;
14734;SDS011;7458;49.002;8.472;2023-02-28T04:34:10;7.63;;;5.50;;
14734;SDS011;7458;49.002;8.472;2023-02-28T04:36:36;12.43;;;6.72;;
14734;SDS011;7458;49.002;8.472;2023-02-28T04:39:01;9.38;;;6.40;;
14734;SDS011;7458;49.002;8.472;2023-02-28T04:41:28;9.00;;;7.55;;
14734;SDS011;7458;49.002;8.472;2023-02-28T04:43:55;10.80;;;8.10;;
14734;SDS011;7458;49.002;8.472;2023-02-28T04:46:21;9.32;;;7.00;;
14734;SDS011;7458;49.002;8.472;2023-02-28T04:48:48;8.50;;;7.03;;
14734;SDS011;7458;49.002;8.472;2023-02-28T04:51:15;7.50;;;5.40;;
14734;SDS011;7458;49.002;8.472;2023-02-28T04:53:43;8.55;;;6.55;;
14734;SDS011;7458;49.002;8.472;2023-02-28T04:56:13;7.72;;;6.18;;
14734;SDS011;7458;49.002;8.472;2023-02-28T04:58:41;9.65;;;6.47;;
14734;SDS011;7458;49.002;8.472;2023-02-28T05:03:54;7.88;;;6.25;;
14734;SDS011;7458;49.002;8.472;2023-02-28T05:06:23;9.55;;;6.70;;
14734;SDS011;7458;49.002;8.472;2023-02-28T05:08:51;7.65;;;6.50;;
14734;SDS011;7458;49.002;8.472;2023-02-28T05:11:19;8.52;;;5.65;;
14734;SDS011;7458;49.002;8.472;2023-02-28T05:14:00;8.27;;;6.72;;
14734;SDS011;7458;49.002;8.472;2023-02-28T05:16:32;8.32;;;7.13;;
14734;SDS011;7458;49.002;8.472;2023-02-28T05:18:58;7.85;;;6.30;;
14734;SDS011;7458;49.002;8.472;2023-02-28T05:21:26;7.88;;;6.28;;
14734;SDS011;7458;49.002;8.472;2023-02-28T05:24:00;10.38;;;7.32;;
14734;SDS011;7458;49.002;8.472;2023-02-28T05:26:36;9.30;;;7.78;;
14734;SDS011;7458;49.002;8.472;2023-02-28T05:29:05;10.93;;;7.28;;
14734;SDS011;7458;49.002;8.472;2023-02-28T05:31:32;10.77;;;6.00;;
14734;SDS011;7458;49.002;8.472;2023-02-28T05:33:57;10.05;;;6.78;;
14734;SDS011;7458;49.002;8.472;2023-02-28T05:36:23;9.15;;;6.50;;
14734;SDS011;7458;49.002;8.472;2023-02-28T05:38:50;9.73;;;6.15;;
14734;SDS011;7458;49.002;8.472;2023-02-28T05:41:17;15.40;;;8.02;;
14734;SDS011;7458;49.002;8.472;2023-02-28T05:43:45;9.65;;;7.53;;
14734;SDS011;7458;49.002;8.472;2023-02-28T05:46:12;9.75;;;6.32;;
14734;SDS011;7458;49.002;8.472;2023-02-28T05:48:39;9.25;;;7.45;;
14734;SDS011;7458;49.002;8.472;2023-02-28T05:51:07;10.40;;;7.60;;
14734;SDS011;7458;49.002;8.472;2023-02-28T05:53:34;8.23;;;6.22;;
14734;SDS011;7458;49.002;8.472;2023-02-28T05:56:00;7.95;;;6.90;;
14734;SDS011;7458;49.002;8.472;2023-02-28T05:58:26;10.23;;;6.88;;
14734;SDS011;7458;49.002;8.472;2023-02-28T06:00:55;9.13;;;7.40;;
14734;SDS011;7458;49.002;8.472;2023-02-28T06:03:26;9.25;;;6.78;;
14734;SDS011;7458;49.002;8.472;2023-02-28T06:05:52;10.20;;;6.32;;
14734;SDS011;7458;49.002;8.472;2023-02-28T06:08:19;8.60;;;6.00;;
14734;SDS011;7458;49.002;8.472;2023-02-28T06:10:45;9.05;;;6.93;;
14734;SDS011;7458;49.002;8.472;2023-02-28T06:13:10;7.60;;;6.22;;
14734;SDS011;7458;49.002;8.472;2023-02-28T06:15:37;11.38;;;7.35;;
14734;SDS011;7458;49.002;8.472;2023-02-28T06:18:04;10.65;;;7.82;;
14734;SDS011;7458;49.002;8.472;2023-02-28T06:20:29;8.32;;;6.40;;
14734;SDS011;7458;49.002;8.472;2023-02-28T06:22:56;9.98;;;7.65;;
14734;SDS011;7458;49.002;8.472;2023-02-28T06:25:26;10.90;;;6.97;;
14734;SDS011;7458;49.002;8.472;2023-02-28T06:27:53;7.32;;;6.25;;
14734;SDS011;7458;49.002;8.472;2023-02-28T06:30:19;11.35;;;6.63;;
14734;SDS011;7458;49.002;8.472;2023-02-28T06:32:49;8.60;;;7.53;;
14734;SDS011;7458;49.002;8.472;2023-02-28T06:35:15;7.80;;;5.55;;
14734;SDS011;7458;49.002;8.472;2023-02-28T06:37:41;9.98;;;8.70;;
14734;SDS011;7458;49.002;8.472;2023-02-28T06:40:09;10.95;;;7.47;;
14734;SDS011;7458;49.002;8.472;2023-02-28T06:42:35;8.75;;;6.95;;
14734;SDS011;7458;49.002;8.472;2023-02-28T06:45:01;10.25;;;6.45;;
14734;SDS011;7458;49.002;8.472;2023-02-28T06:47:33;12.65;;;8.30;;
14734;SDS011;7458;49.002;8.472;2023-02-28T06:50:01;12.68;;;6.85;;
14734;SDS011;7458;49.002;8.472;2023-02-28T06:52:27;8.38;;;7.32;;
14734;SDS011;7458;49.002;8.472;2023-02-28T06:54:53;15.25;;;6.47;;
14734;SDS011;7458;49.002;8.472;2023-02-28T06:57:25;10.60;;;7.25;;
14734;SDS011;7458;49.002;8.472;2023-02-28T06:59:56;9.07;;;7.10;;
14734;SDS011;7458;49.002;8.472;2023-02-28T07:02:26;12.50;;;8.73;;
14734;SDS011;7458;49.002;8.472;2023-02-28T07:04:52;12.45;;;9.77;;
14734;SDS011;7458;49.002;8.472;2023-02-28T07:07:18;13.35;;;8.38;;
14734;SDS011;7458;49.002;8.472;2023-02-28T07:09:44;11.55;;;7.28;;
14734;SDS011;7458;49.002;8.472;2023-02-28T07:12:10;9.38;;;7.75;;
14734;SDS011;7458;49.002;8.472;2023-02-28T07:14:36;14.85;;;7.32;;
14734;SDS011;7458;49.002;8.472;2023-02-28T07:17:02;10.43;;;7.50;;
14734;SDS011;7458;49.002;8.472;2023-02-28T07:19:28;12.10;;;8.98;;
14734;SDS011;7458;49.002;8.472;2023-02-28T07:21:54;11.82;;;8.02;;
14734;SDS011;7458;49.002;8.472;2023-02-28T07:24:19;12.88;;;7.38;;
14734;SDS011;7458;49.002;8.472;2023-02-28T07:26:45;10.90;;;8.27;;
14734;SDS011;7458;49.002;8.472;2023-02-28T07:29:11;84.07;;;56.10;;
14734;SDS011;7458;49.002;8.472;2023-02-28T07:31:37;15.85;;;10.85;;
14734;SDS011;7458;49.002;8.472;2023-02-28T07:34:03;12.73;;;8.02;;
14734;SDS011;7458;49.002;8.472;2023-02-28T07:36:28;10.00;;;7.45;;
14734;SDS011;7458;49.002;8.472;2023-02-28T07:38:54;9.65;;;8.13;;
14734;SDS011;7458;49.002;8.472;2023-02-28T07:41:20;12.27;;;8.77;;
14734;SDS011;7458;49.002;8.472;2023-02-28T07:43:48;13.75;;;10.65;;
14734;SDS011;7458;49.002;8.472;2023-02-28T07:46:15;12.25;;;7.95;;
14734;SDS011;7458;49.002;8.472;2023-02-28T07:48:42;11.95;;;8.10;;
14734;SDS011;7458;49.002;8.472;2023-02-28T07:51:09;11.93;;;9.70;;
14734;SDS011;7458;49.002;8.472;2023-02-28T07:53:35;12.07;;;9.48;;
14734;SDS011;7458;49.002;8.472;2023-02-28T07:56:01;18.45;;;8.95;;
14734;SDS011;7458;49.002;8.472;2023-02-28T07:58:29;11.38;;;8.98;;
14734;SDS011;7458;49.002;8.472;2023-02-28T08:00:56;9.60;;;7.53;;
14734;SDS011;7458;49.002;8.472;2023-02-28T08:03:23;10.30;;;9.18;;
14734;SDS011;7458;49.002;8.472;2023-02-28T08:05:49;8.57;;;7.63;;
14734;SDS011;7458;49.002;8.472;2023-02-28T08:08:17;14.32;;;8.93;;
14734;SDS011;7458;49.002;8.472;2023-02-28T08:10:43;10.00;;;8.88;;
14734;SDS011;7458;49.002;8.472;2023-02-28T08:13:09;9.35;;;7.80;;
14734;SDS011;7458;49.002;8.472;2023-02-28T08:15:34;11.75;;;10.02;;
14734;SDS011;7458;49.002;8.472;2023-02-28T08:18:03;13.30;;;11.75;;
14734;SDS011;7458;49.002;8.472;2023-02-28T08:20:29;10.18;;;9.13;;
14734;SDS011;7458;49.002;8.472;2023-02-28T08:22:55;11.23;;;8.57;;
14734;SDS011;7458;49.002;8.472;2023-02-28T08:25:21;10.68;;;8.95;;
14734;SDS011;7458;49.002;8.472;2023-02-28T08:27:47;11.52;;;10.32;;
14734;SDS011;7458;49.002;8.472;2023-02-28T08:30:15;12.20;;;10.93;;
14734;SDS011;7458;49.002;8.472;2023-02-28T08:32:41;15.82;;;10.10;;
14734;SDS011;7458;49.002;8.472;2023-02-28T08:35:07;12.60;;;10.50;;
14734;SDS011;7458;49.002;8.472;2023-02-28T08:37:34;11.07;;;9.65;;
14734;SDS011;7458;49.002;8.472;2023-02-28T08:40:00;11.05;;;9.13;;
14734;SDS011;7458;49.002;8.472;2023-02-28T08:42:26;13.65;;;10.18;;
14734;SDS011;7458;49.002;8.472;2023-02-28T08:44:51;11.30;;;8.85;;
14734;SDS011;7458;49.002;8.472;2023-02-28T08:47:17;14.25;;;10.35;;
14734;SDS011;7458;49.002;8.472;2023-02-28T08:49:43;11.27;;;10.02;;
14734;SDS011;7458;49.002;8.472;2023-02-28T08:52:09;13.73;;;10.88;;
14734;SDS011;7458;49.002;8.472;2023-02-28T08:54:35;13.43;;;10.25;;
14734;SDS011;7458;49.002;8.472;2023-02-28T08:57:02;14.57;;;11.02;;
14734;SDS011;7458;49.002;8.472;2023-02-28T08:59:28;15.77;;;11.32;;
14734;SDS011;7458;49.002;8.472;2023-02-28T09:01:54;12.02;;;10.95;;
14734;SDS011;7458;49.002;8.472;2023-02-28T09:04:20;14.38;;;10.75;;
14734;SDS011;7458;49.002;8.472;2023-02-28T09:06:46;13.48;;;10.30;;
14734;SDS011;7458;49.002;8.472;2023-02-28T09:09:13;12.90;;;10.95;;
14734;SDS011;7458;49.002;8.472;2023-02-28T09:11:40;16.58;;;12.02;;
14734;SDS011;7458;49.002;8.472;2023-02-28T09:14:06;14.55;;;11.63;;
14734;SDS011;7458;49.002;8.472;2023-02-28T09:16:32;15.05;;;11.07;;
14734;SDS011;7458;49.002;8.472;2023-02-28T09:19:00;15.52;;;10.82;;
14734;SDS011;7458;49.002;8.472;2023-02-28T09:21:26;14.88;;;13.00;;
14734;SDS011;7458;49.002;8.472;2023-02-28T09:23:53;13.98;;;12.05;;
14734;SDS011;7458;49.002;8.472;2023-02-28T09:26:26;14.15;;;11.85;;
14734;SDS011;7458;49.002;8.472;2023-02-28T09:28:52;13.43;;;11.60;;
14734;SDS011;7458;49.002;8.472;2023-02-28T09:31:21;14.27;;;11.50;;
14734;SDS011;7458;49.002;8.472;2023-02-28T09:33:50;14.38;;;11.45;;
14734;SDS011;7458;49.002;8.472;2023-02-28T09:36:19;18.95;;;11.13;;
14734;SDS011;7458;49.002;8.472;2023-02-28T09:38:46;15.02;;;12.05;;
14734;SDS011;7458;49.002;8.472;2023-02-28T09:44:20;14.93;;;12.82;;
14734;SDS011;7458;49.002;8.472;2023-02-28T09:47:01;13.32;;;11.48;;
14734;SDS011;7458;49.002;8.472;2023-02-28T09:49:56;12.63;;;10.13;;
14734;SDS011;7458;49.002;8.472;2023-02-28T09:52:55;15.35;;;10.20;;
14734;SDS011;7458;49.002;8.472;2023-02-28T09:55:39;13.15;;;11.63;;
14734;SDS011;7458;49.002;8.472;2023-02-28T09:58:26;15.77;;;12.23;;
14734;SDS011;7458;49.002;8.472;2023-02-28T10:01:25;15.65;;;11.35;;
14734;SDS011;7458;49.002;8.472;2023-02-28T10:04:03;13.80;;;11.48;;
14734;SDS011;7458;49.002;8.472;2023-02-28T10:06:47;14.13;;;12.40;;
14734;SDS011;7458;49.002;8.472;2023-02-28T10:09:20;14.82;;;13.25;;
14734;SDS011;7458;49.002;8.472;2023-02-28T10:11:52;14.82;;;13.18;;
14734;SDS011;7458;49.002;8.472;2023-02-28T10:14:26;14.60;;;13.05;;
14734;SDS011;7458;49.002;8.472;2023-02-28T10:16:55;12.98;;;10.07;;
14734;SDS011;7458;49.002;8.472;2023-02-28T10:22:17;12.38;;;11.13;;
14734;SDS011;7458;49.002;8.472;2023-02-28T10:24:54;13.25;;;11.85;;
14734;SDS011;7458;49.002;8.472;2023-02-28T10:27:26;16.50;;;11.57;;
14734;SDS011;7458;49.002;8.472;2023-02-28T10:30:00;14.10;;;11.80;;
14734;SDS011;7458;49.002;8.472;2023-02-28T10:32:32;12.88;;;11.18;;
14734;SDS011;7458;49.002;8.472;2023-02-28T10:37:42;18.75;;;11.85;;
14734;SDS011;7458;49.002;8.472;2023-02-28T10:40:25;16.23;;;11.95;;
14734;SDS011;7458;49.002;8.472;2023-02-28T10:45:33;15.95;;;11.27;;
14734;SDS011;7458;49.002;8.472;2023-02-28T10:50:44;15.73;;;13.32;;
14734;SDS011;7458;49.002;8.472;2023-02-28T10:55:57;15.70;;;13.50;;
14734;SDS011;7458;49.002;8.472;2023-02-28T11:01:41;17.70;;;13.40;;
14734;SDS011;7458;49.002;8.472;2023-02-28T11:09:45;13.98;;;11.35;;
14734;SDS011;7458;49.002;8.472;2023-02-28T11:12:34;16.35;;;13.00;;
14734;SDS011;7458;49.002;8.472;2023-02-28T11:20:23;14.68;;;13.02;;
14734;SDS011;7458;49.002;8.472;2023-02-28T11:22:53;13.50;;;12.07;;
14734;SDS011;7458;49.002;8.472;2023-02-28T11:27:52;17.52;;;13.30;;
14734;SDS011;7458;49.002;8.472;2023-02-28T11:32:53;16.23;;;11.25;;
14734;SDS011;7458;49.002;8.472;2023-02-28T11:35:30;18.42;;;12.48;;
14734;SDS011;7458;49.002;8.472;2023-02-28T11:38:02;12.48;;;11.23;;
14734;SDS011;7458;49.002;8.472;2023-02-28T11:49:37;15.70;;;13.40;;
14734;SDS011;7458;49.002;8.472;2023-02-28T11:58:29;16.70;;;12.57;;
14734;SDS011;7458;49.002;8.472;2023-02-28T12:01:25;14.23;;;12.52;;
14734;SDS011;7458;49.002;8.472;2023-02-28T12:10:57;16.67;;;13.65;;
14734;SDS011;7458;49.002;8.472;2023-02-28T12:13:51;14.95;;;12.85;;
14734;SDS011;7458;49.002;8.472;2023-02-28T12:19:26;18.00;;;13.15;;
14734;SDS011;7458;49.002;8.472;2023-02-28T12:22:14;13.90;;;12.18;;
14734;SDS011;7458;49.002;8.472;2023-02-28T12:27:47;14.77;;;12.30;;
14734;SDS011;7458;49.002;8.472;2023-02-28T12:33:06;14.82;;;13.32;;
14734;SDS011;7458;49.002;8.472;2023-02-28T12:36:13;16.23;;;12.90;;
14734;SDS011;7458;49.002;8.472;2023-02-28T12:41:18;15.85;;;12.95;;
14734;SDS011;7458;49.002;8.472;2023-02-28T12:44:09;14.85;;;13.27;;
14734;SDS011;7458;49.002;8.472;2023-02-28T12:46:44;19.08;;;14.18;;
14734;SDS011;7458;49.002;8.472;2023-02-28T12:51:46;13.57;;;12.18;;
14734;SDS011;7458;49.002;8.472;2023-02-28T12:54:16;16.02;;;13.13;;
14734;SDS011;7458;49.002;8.472;2023-02-28T12:59:42;14.35;;;12.95;;
14734;SDS011;7458;49.002;8.472;2023-02-28T13:11:27;16.50;;;13.00;;
14734;SDS011;7458;49.002;8.472;2023-02-28T13:14:00;14.00;;;12.43;;
14734;SDS011;7458;49.002;8.472;2023-02-28T13:16:57;16.40;;;13.55;;
14734;SDS011;7458;49.002;8.472;2023-02-28T13:19:29;13.88;;;12.30;;
14734;SDS011;7458;49.002;8.472;2023-02-28T13:21:59;16.23;;;13.13;;
14734;SDS011;7458;49.002;8.472;2023-02-28T13:29:35;14.68;;;13.15;;
14734;SDS011;7458;49.002;8.472;2023-02-28T13:47:38;17.08;;;15.30;;
14734;SDS011;7458;49.002;8.472;2023-02-28T13:50:19;16.80;;;12.70;;
14734;SDS011;7458;49.002;8.472;2023-02-28T13:55:46;18.00;;;12.20;;
14734;SDS011;7458;49.002;8.472;2023-02-28T14:07:22;19.13;;;14.82;;
14734;SDS011;7458;49.002;8.472;2023-02-28T14:10:02;19.58;;;15.65;;
14734;SDS011;7458;49.002;8.472;2023-02-28T14:15:39;22.67;;;14.73;;
14734;SDS011;7458;49.002;8.472;2023-02-28T14:20:57;14.93;;;13.43;;
14734;SDS011;7458;49.002;8.472;2023-02-28T14:23:44;15.95;;;13.95;;
14734;SDS011;7458;49.002;8.472;2023-02-28T14:32:28;15.48;;;12.57;;
14734;SDS011;7458;49.002;8.472;2023-02-28T14:35:20;18.23;;;14.68;;
14734;SDS011;7458;49.002;8.472;2023-02-28T14:37:50;17.10;;;15.25;;
14734;SDS011;7458;49.002;8.472;2023-02-28T14:42:56;16.83;;;14.55;;
14734;SDS011;7458;49.002;8.472;2023-02-28T14:45:51;20.05;;;16.58;;
14734;SDS011;7458;49.002;8.472;2023-02-28T14:48:22;18.55;;;16.60;;
14734;SDS011;7458;49.002;8.472;2023-02-28T14:50:54;17.73;;;15.77;;
14734;SDS011;7458;49.002;8.472;2023-02-28T14:55:55;16.27;;;13.15;;
14734;SDS011;7458;49.002;8.472;2023-02-28T14:58:28;18.98;;;14.63;;
14734;SDS011;7458;49.002;8.472;2023-02-28T15:00:58;14.68;;;13.10;;
14734;SDS011;7458;49.002;8.472;2023-02-28T15:03:31;19.30;;;14.73;;
14734;SDS011;7458;49.002;8.472;2023-02-28T15:05:59;14.75;;;13.02;;
14734;SDS011;7458;49.002;8.472;2023-02-28T15:08:29;16.55;;;13.75;;
14734;SDS011;7458;49.002;8.472;2023-02-28T15:11:07;18.35;;;14.27;;
14734;SDS011;7458;49.002;8.472;2023-02-28T15:13:46;17.23;;;15.43;;
14734;SDS011;7458;49.002;8.472;2023-02-28T15:19:00;15.15;;;13.68;;
14734;SDS011;7458;49.002;8.472;2023-02-28T15:21:36;16.70;;;13.93;;
14734;SDS011;7458;49.002;8.472;2023-02-28T15:24:19;19.33;;;16.75;;
14734;SDS011;7458;49.002;8.472;2023-02-28T15:26:59;20.70;;;18.33;;
14734;SDS011;7458;49.002;8.472;2023-02-28T15:29:46;16.80;;;14.10;;
14734;SDS011;7458;49.002;8.472;2023-02-28T15:32:26;19.58;;;14.45;;
14734;SDS011;7458;49.002;8.472;2023-02-28T15:34:56;17.52;;;15.02;;
14734;SDS011;7458;49.002;8.472;2023-02-28T15:43:04;17.85;;;15.75;;
14734;SDS011;7458;49.002;8.472;2023-02-28T15:45:33;15.00;;;13.38;;
14734;SDS011;7458;49.002;8.472;2023-02-28T15:48:28;16.85;;;14.50;;
14734;SDS011;7458;49.002;8.472;2023-02-28T15:50:57;16.52;;;14.80;;
14734;SDS011;7458;49.002;8.472;2023-02-28T15:53:43;21.30;;;15.80;;
14734;SDS011;7458;49.002;8.472;2023-02-28T15:56:29;16.10;;;14.27;;
14734;SDS011;7458;49.002;8.472;2023-02-28T15:58:59;20.25;;;14.55;;
14734;SDS011;7458;49.002;8.472;2023-02-28T16:01:32;17.77;;;14.60;;
14734;SDS011;7458;49.002;8.472;2023-02-28T16:04:01;18.23;;;12.35;;
14734;SDS011;7458;49.002;8.472;2023-02-28T16:06:43;17.30;;;14.65;;
14734;SDS011;7458;49.002;8.472;2023-02-28T16:09:24;18.52;;;16.55;;
14734;SDS011;7458;49.002;8.472;2023-02-28T16:11:52;17.65;;;15.85;;
14734;SDS011;7458;49.002;8.472;2023-02-28T16:14:22;18.67;;;15.40;;
14734;SDS011;7458;49.002;8.472;2023-02-28T16:16:53;19.58;;;15.48;;
14734;SDS011;7458;49.002;8.472;2023-02-28T16:19:27;19.85;;;13.60;;
14734;SDS011;7458;49.002;8.472;2023-02-28T16:21:52;18.42;;;14.18;;
14734;SDS011;7458;49.002;8.472;2023-02-28T16:24:18;18.55;;;14.00;;
14734;SDS011;7458;49.002;8.472;2023-02-28T16:26:47;16.42;;;14.63;;
14734;SDS011;7458;49.002;8.472;2023-02-28T16:29:19;17.30;;;14.52;;
14734;SDS011;7458;49.002;8.472;2023-02-28T16:31:59;16.23;;;14.20;;
14734;SDS011;7458;49.002;8.472;2023-02-28T16:34:26;20.13;;;13.68;;
14734;SDS011;7458;49.002;8.472;2023-02-28T16:36:52;14.73;;;12.85;;
14734;SDS011;7458;49.002;8.472;2023-02-28T16:39:18;17.65;;;12.70;;
14734;SDS011;7458;49.002;8.472;2023-02-28T16:41:45;18.08;;;15.95;;
14734;SDS011;7458;49.002;8.472;2023-02-28T16:44:21;16.98;;;14.02;;
14734;SDS011;7458;49.002;8.472;2023-02-28T16:46:56;17.92;;;14.63;;
14734;SDS011;7458;49.002;8.472;2023-02-28T16:49:25;15.07;;;13.65;;
14734;SDS011;7458;49.002;8.472;2023-02-28T16:51:50;18.83;;;14.05;;
14734;SDS011;7458;49.002;8.472;2023-02-28T16:54:16;19.23;;;14.70;;
14734;SDS011;7458;49.002;8.472;2023-02-28T16:56:43;19.00;;;13.93;;
14734;SDS011;7458;49.002;8.472;2023-02-28T16:59:12;23.25;;;13.95;;
14734;SDS011;7458;49.002;8.472;2023-02-28T17:01:42;20.70;;;14.65;;
14734;SDS011;7458;49.002;8.472;2023-02-28T17:04:08;20.88;;;15.30;;
14734;SDS011;7458;49.002;8.472;2023-02-28T17:06:36;17.10;;;15.30;;
14734;SDS011;7458;49.002;8.472;2023-02-28T17:09:02;18.63;;;14.77;;
14734;SDS011;7458;49.002;8.472;2023-02-28T17:11:28;19.05;;;14.77;;
14734;SDS011;7458;49.002;8.472;2023-02-28T17:13:54;18.27;;;14.80;;
14734;SDS011;7458;49.002;8.472;2023-02-28T17:16:22;17.75;;;14.45;;
14734;SDS011;7458;49.002;8.472;2023-02-28T17:18:57;16.48;;;14.63;;
14734;SDS011;7458;49.002;8.472;2023-02-28T17:21:29;17.80;;;14.73;;
14734;SDS011;7458;49.002;8.472;2023-02-28T17:23:57;17.67;;;14.27;;
14734;SDS011;7458;49.002;8.472;2023-02-28T17:26:23;19.95;;;15.07;;
14734;SDS011;7458;49.002;8.472;2023-02-28T17:28:50;22.20;;;13.55;;
14734;SDS011;7458;49.002;8.472;2023-02-28T17:31:19;15.63;;;13.48;;
14734;SDS011;7458;49.002;8.472;2023-02-28T17:33:45;16.80;;;13.30;;
14734;SDS011;7458;49.002;8.472;2023-02-28T17:36:15;15.18;;;13.57;;
14734;SDS011;7458;49.002;8.472;2023-02-28T17:38:47;17.35;;;14.07;;
14734;SDS011;7458;49.002;8.472;2023-02-28T17:41:13;19.75;;;15.32;;
14734;SDS011;7458;49.002;8.472;2023-02-28T17:43:39;16.75;;;14.00;;
14734;SDS011;7458;49.002;8.472;2023-02-28T17:46:06;17.63;;;14.52;;
14734;SDS011;7458;49.002;8.472;2023-02-28T17:48:46;17.20;;;15.40;;
14734;SDS011;7458;49.002;8.472;2023-02-28T17:51:14;19.17;;;15.80;;
14734;SDS011;7458;49.002;8.472;2023-02-28T17:53:41;18.70;;;15.70;;
14734;SDS011;7458;49.002;8.472;2023-02-28T17:56:13;19.55;;;15.55;;
14734;SDS011;7458;49.002;8.472;2023-02-28T17:58:46;17.27;;;13.90;;
14734;SDS011;7458;49.002;8.472;2023-02-28T18:01:12;16.92;;;14.25;;
14734;SDS011;7458;49.002;8.472;2023-02-28T18:03:39;36.45;;;28.92;;
14734;SDS011;7458;49.002;8.472;2023-02-28T18:06:05;20.30;;;16.23;;
14734;SDS011;7458;49.002;8.472;2023-02-28T18:08:31;18.92;;;16.90;;
14734;SDS011;7458;49.002;8.472;2023-02-28T18:11:00;18.10;;;14.65;;
14734;SDS011;7458;49.002;8.472;2023-02-28T18:13:26;18.75;;;15.35;;
14734;SDS011;7458;49.002;8.472;2023-02-28T18:15:54;19.52;;;15.65;;